Allentown, New York
Current Conditions -  °F | °C
As of 9:56 PM on Thursday 18 Dec 2014 (Local Time) from KELZ Reporting Station
Overcast Overcast  
Wind Chill: 15°   Ceiling: 1000
Heat Index: 27°   Visibility: 10mi
Dew Point: 23°   Wind: 16mph
Humidity: 85%   Direction: 300°WNW
Pressure: 29.97"   Gusts: NA
Location:  42.08°N, 78.06°W
Report Text: KELZ 190256Z AUTO 30014KT 10SM OVC010 M03/M05 A2997 RMK AO2 SLP177 I3000 T10281050 56012
Loading
Personal Weather Stations






























Interactive Weather Map New forecast layout! Learn more

10-Day Weather Forecast

Advertisements
Track Severe Weather on mobile